Walla Walla, WA

10:02 PM PDT on August 28, 2014 (GMT -0700)
Whitman | Change Station
CLOSE
Current Station
Personal Weather Station
Location: Walla Walla, WA
Elevation: 994 ft
Nearby Weather Stations

Elev 994 ft 46.07 °N, 118.33 °W | Updated 16 minutes ago

Clear
Clear
74.0 °F
Feels Like 77 °F
N
4.0
Wind Variable Wind from ESE
Gusts 7.0 mph

Today
High -- | Low -- °F
--% Chance of Precip.
Yesterday
High -- | Low -- °F
Precip. -- in
6:09 AM 7:38 PM
Waxing Crescent, 12% visible
Pressure 29.92 in
Visibility 10.0 miles
Clouds Clear
Heat Index 77 °F
Dew Point 40 °F
Humidity 29%
Rainfall 0.00 in
Snow Depth Not available.
UV 0 out of 12
Pollen 6.60 out of 12
Air Quality Not available.
Flu Activity Not available.
METAR KALW 290453Z AUTO 12006KT 10SM CLR 22/02 A2994 RMK AO2 SLP131 T02220022

More Conditions Fewer Conditions

Pressure 29.92 in
Visibility 10.0 miles
Clouds Clear
Heat Index 77 °F
Dew Point 40 °F
Humidity 29%
Rainfall 0.00 in
Snow Depth Not available.
UV 0 out of 12
Pollen 6.60 out of 12
Air Quality Not available.
Flu Activity Not available.
METAR KALW 290453Z AUTO 12006KT 10SM CLR 22/02 A2994 RMK AO2 SLP131 T02220022

More Conditions Fewer Conditions

10-Day Weather Forecast

Almanac

Astronomy

Aug. 28, 2014 Rise Set
Actual Time 6:09 AM PDT 7:38 PM PDT
Civil Twilight 5:37 AM PDT 8:10 PM PDT
Nautical Twilight 4:59 AM PDT 8:47 PM PDT
Astronomical Twilight 4:18 AM PDT 9:28 PM PDT
Moon 9:18 AM PDT (8/28) 8:52 PM PDT (8/28)
Length of Visible Light 14h 32m
Length of Day
13h 29m
Tomorrow will be 3m 6s shorter.
Waxing Crescent, 12% of the Moon is Illuminated
Aug 29
Waxing Crescent
Sep 2
First Quarter
Sep 8
Full
Sep 15
Last Quarter
Sep 24
New

Yesterday's Extremes

State Highs State Lows

Community

WunderPhotos

Upload Photos

1,748,192 photos uploaded!

Nearby

Snow Depth

Station Depth Elevation
Spruce Springs 0 in 5700 ft
Trough 0 in 5300 ft
Upper Wheeler 0 in 4400 ft
Grouse Camp 0 in 5380 ft
Lost Horse 0 in 5000 ft

Earthquake Activity

City Distance Mag. Time & Date
No recent earthquake activity has been reported nearby.
Minimum magnitude displayed is 2.5.

Coastal Water Temperatures

Place Temperature
No Stations Reporting

Nearby Weather Stations